Auburn Municipal Airport

KAUN · Californië, Verenigde Staten

METAR historie KAUN · Auburn Municipal Airport

Hieronder zie je METAR's van de afgelopen dagen. Kies een jaar om door oudere METAR's te bladeren, vanaf het jaar 2007.

15 juni 2024

Tijd Code Weer Temp. Zicht Plafond Wind METAR/SPECI
20:35
V
21 °C 10 mi - 360° 360° 0 kt METAR KAUN 160335Z AUTO 00000KT 10SM CLR 21/M01 A2990 RMK A01
20:15
V
23 °C 10 mi - 360° 360° 0 kt METAR KAUN 160315Z AUTO 00000KT 10SM CLR 23/M03 A2990 RMK A01
19:55
V
25 °C 10 mi - Var Var 4 kt METAR KAUN 160255Z AUTO VRB04KT 10SM CLR 25/M03 A2991 RMK A01
19:35
V
25 °C 10 mi - 320° 320° 4 - 10 kt METAR KAUN 160235Z AUTO 32004G10KT 10SM CLR 25/M04 A2991 RMK A01
19:15
V
26 °C 10 mi - 290° 290° 7 kt METAR KAUN 160215Z AUTO 29007KT 10SM CLR 26/M05 A2991 RMK A01
18:55
V
26 °C 10 mi - 300° 300° 6 - 12 kt METAR KAUN 160155Z AUTO 30006G12KT 10SM CLR 26/M06 A2991 RMK A01
18:35
V
27 °C 10 mi - 280° 280° 8 kt METAR KAUN 160135Z AUTO 28008KT 250V310 10SM CLR 27/M06 A2991 RMK A01
18:15
V
27 °C 10 mi - Var Var 4 - 11 kt METAR KAUN 160115Z AUTO VRB04G11KT 10SM CLR 27/M05 A2991 RMK A01
17:55
V
27 °C 10 mi - 310° 310° 8 - 15 kt METAR KAUN 160055Z AUTO 31008G15KT 270V350 10SM CLR 27/M04 A2991 RMK A01
17:35
V
28 °C 10 mi - 330° 330° 5 kt METAR KAUN 160035Z AUTO 33005KT 10SM CLR 28/M02 A2991 RMK A01
17:15
V
28 °C 10 mi - 330° 330° 8 - 13 kt METAR KAUN 160015Z AUTO 33008G13KT 300V010 10SM CLR 28/M01 A2991 RMK A01
16:55
V
28 °C 10 mi - 290° 290° 7 - 15 kt METAR KAUN 152355Z AUTO 29007G15KT 10SM CLR 28/M01 A2992 RMK A01
16:35
V
28 °C 10 mi - 300° 300° 10 kt METAR KAUN 152335Z AUTO 30010KT 10SM CLR 28/00 A2992 RMK A01
16:15
V
28 °C 10 mi - 270° 270° 7 - 15 kt METAR KAUN 152315Z AUTO 27007G15KT 10SM CLR 28/00 A2993 RMK A01
15:55
V
28 °C 10 mi - 320° 320° 7 - 13 kt METAR KAUN 152255Z AUTO 32007G13KT 280V360 10SM CLR 28/01 A2994 RMK A01
15:35
V
27 °C 10 mi - 280° 280° 7 - 13 kt METAR KAUN 152235Z AUTO 28007G13KT 240V330 10SM CLR 27/01 A2994 RMK A01
15:15
V
27 °C 10 mi - 300° 300° 7 kt METAR KAUN 152215Z AUTO 30007KT 260V320 10SM CLR 27/02 A2995 RMK A01
14:55
V
27 °C 10 mi - 280° 280° 5 - 13 kt METAR KAUN 152155Z AUTO 28005G13KT 10SM CLR 27/02 A2996 RMK A01
14:35
V
26 °C 10 mi - Var Var 5 - 12 kt METAR KAUN 152135Z AUTO VRB05G12KT 10SM CLR 26/02 A2996 RMK A01
14:15
V
26 °C 10 mi - Var Var 6 kt METAR KAUN 152115Z AUTO VRB06KT 10SM CLR 26/03 A2997 RMK A01
13:55
V
26 °C 10 mi - 300° 300° 8 - 14 kt METAR KAUN 152055Z AUTO 30008G14KT 10SM CLR 26/04 A2998 RMK A01
13:35
V
26 °C 10 mi - 290° 290° 8 kt METAR KAUN 152035Z AUTO 29008KT 260V320 10SM CLR 26/04 A2998 RMK A01
13:15
V
25 °C 10 mi - Var Var 6 - 12 kt METAR KAUN 152015Z AUTO VRB06G12KT 10SM CLR 25/04 A2998 RMK A01
12:55
V
24 °C 10 mi - 290° 290° 5 kt METAR KAUN 151955Z AUTO 29005KT 10SM CLR 24/03 A2999 RMK A01
12:35
V
24 °C 10 mi - 280° 280° 7 kt METAR KAUN 151935Z AUTO 28007KT 10SM CLR 24/03 A2999 RMK A01
12:15
V
24 °C 10 mi - 290° 290° 8 kt METAR KAUN 151915Z AUTO 29008KT 10SM CLR 24/04 A3000 RMK A01
11:55
V
24 °C 10 mi - 280° 280° 7 kt METAR KAUN 151855Z AUTO 28007KT 250V310 10SM CLR 24/05 A3000 RMK A01
11:35
V
24 °C 10 mi - Var Var 6 - 14 kt METAR KAUN 151835Z AUTO VRB06G14KT 10SM CLR 24/05 A3000 RMK A01
11:15
V
23 °C 10 mi - 290° 290° 9 kt METAR KAUN 151815Z AUTO 29009KT 10SM CLR 23/06 A3000 RMK A01
10:55
V
23 °C 10 mi - 290° 290° 7 kt METAR KAUN 151755Z AUTO 29007KT 250V330 10SM CLR 23/07 A3000 RMK A01
10:35
V
22 °C 10 mi - 280° 280° 6 kt METAR KAUN 151735Z AUTO 28006KT 10SM CLR 22/07 A3000 RMK A01
10:15
V
22 °C 10 mi - 320° 320° 6 kt METAR KAUN 151715Z AUTO 32006KT 10SM CLR 22/06 A3000 RMK A01
09:55
V
22 °C 10 mi - 300° 300° 7 kt METAR KAUN 151655Z AUTO 30007KT 280V340 10SM CLR 22/05 A3000 RMK A01
09:35
V
21 °C 10 mi - Var Var 5 kt METAR KAUN 151635Z AUTO VRB05KT 10SM CLR 21/06 A3000 RMK A01
09:15
V
20 °C 10 mi - Var Var 5 kt METAR KAUN 151615Z AUTO VRB05KT 10SM CLR 20/05 A3000 RMK A01
08:55
V
20 °C 10 mi - Var Var 6 kt METAR KAUN 151555Z AUTO VRB06KT 10SM CLR 20/04 A3000 RMK A01
08:35
V
19 °C 10 mi - Var Var 4 kt METAR KAUN 151535Z AUTO VRB04KT 10SM CLR 19/04 A3000 RMK A01
08:15
V
19 °C 10 mi - 320° 320° 4 kt METAR KAUN 151515Z AUTO 32004KT 10SM CLR 19/04 A3001 RMK A01
07:55
V
18 °C 10 mi - 340° 340° 3 kt METAR KAUN 151455Z AUTO 34003KT 10SM CLR 18/05 A3000 RMK A01
07:35
V
18 °C 10 mi - 360° 360° 0 kt METAR KAUN 151435Z AUTO 00000KT 10SM CLR 18/03 A3000 RMK A01
07:15
V
17 °C 10 mi - 080° 080° 6 kt METAR KAUN 151415Z AUTO 08006KT 10SM CLR 17/04 A2999 RMK A01
06:55
V
16 °C 10 mi - 100° 100° 7 kt METAR KAUN 151355Z AUTO 10007KT 10SM CLR 16/04 A2998 RMK A01
06:35
V
15 °C 10 mi - 100° 100° 7 kt METAR KAUN 151335Z AUTO 10007KT 10SM CLR 15/04 A2998 RMK A01
06:15
V
14 °C 10 mi - 080° 080° 6 kt METAR KAUN 151315Z AUTO 08006KT 10SM CLR 14/04 A2999 RMK A01
05:55
V
14 °C 10 mi - 120° 120° 5 kt METAR KAUN 151255Z AUTO 12005KT 10SM CLR 14/04 A2998 RMK A01
05:35
V
14 °C 10 mi - 120° 120° 7 kt METAR KAUN 151235Z AUTO 12007KT 10SM CLR 14/04 A2998 RMK A01
05:15
V
14 °C 10 mi - 120° 120° 7 kt METAR KAUN 151215Z AUTO 12007KT 10SM CLR 14/04 A2999 RMK A01
04:55
V
14 °C 10 mi - 100° 100° 8 kt METAR KAUN 151155Z AUTO 10008KT 10SM CLR 14/04 A2998 RMK A01
04:35
V
14 °C 10 mi - 120° 120° 8 kt METAR KAUN 151135Z AUTO 12008KT 10SM CLR 14/04 A2998 RMK A01
04:15
V
15 °C 10 mi - 120° 120° 8 - 14 kt METAR KAUN 151115Z AUTO 12008G14KT 10SM CLR 15/04 A2998 RMK A01
03:55
V
15 °C 10 mi - 120° 120° 8 kt METAR KAUN 151055Z AUTO 12008KT 10SM CLR 15/04 A2997 RMK A01
03:35
V
15 °C 10 mi - 120° 120° 9 kt METAR KAUN 151035Z AUTO 12009KT 10SM CLR 15/04 A2997 RMK A01
03:15
V
15 °C 10 mi - 140° 140° 8 kt METAR KAUN 151015Z AUTO 14008KT 10SM CLR 15/04 A2997 RMK A01
02:55
V
16 °C 10 mi - 150° 150° 5 kt METAR KAUN 150955Z AUTO 15005KT 10SM CLR 16/04 A2998 RMK A01
02:35
V
17 °C 10 mi - 160° 160° 7 kt METAR KAUN 150935Z AUTO 16007KT 10SM CLR 17/03 A2998 RMK A01
02:15
V
17 °C 10 mi - 150° 150° 6 kt METAR KAUN 150915Z AUTO 15006KT 10SM CLR 17/03 A2997 RMK A01
01:55
V
17 °C 10 mi - 140° 140° 4 kt METAR KAUN 150855Z AUTO 14004KT 10SM CLR 17/02 A2997 RMK A01
01:35
V
18 °C 10 mi - 140° 140° 6 kt METAR KAUN 150835Z AUTO 14006KT 10SM CLR 18/02 A2996 RMK A01
01:15
V
18 °C 10 mi - 120° 120° 7 kt METAR KAUN 150815Z AUTO 12007KT 10SM CLR 18/02 A2997 RMK A01
00:55
V
18 °C 10 mi - 120° 120° 10 kt METAR KAUN 150755Z AUTO 12010KT 10SM CLR 18/02 A2997 RMK A01
00:35
V
19 °C 10 mi - 130° 130° 5 kt METAR KAUN 150735Z AUTO 13005KT 10SM CLR 19/02 A2998 RMK A01
00:15
V
19 °C 10 mi - 130° 130° 10 - 18 kt METAR KAUN 150715Z AUTO 13010G18KT 10SM CLR 19/01 A2998 RMK A01

14 juni 2024

Tijd Code Weer Temp. Zicht Plafond Wind METAR/SPECI
23:55
V
20 °C 10 mi - 140° 140° 10 kt METAR KAUN 150655Z AUTO 14010KT 10SM CLR 20/03 A2998 RMK A01
23:35
V
20 °C 10 mi - 140° 140° 9 kt METAR KAUN 150635Z AUTO 14009KT 10SM CLR 20/04 A2998 RMK A01
23:15
V
21 °C 10 mi - 130° 130° 6 kt METAR KAUN 150615Z AUTO 13006KT 10SM CLR 21/04 A2998 RMK A01
22:55
V
21 °C 10 mi - 130° 130° 9 kt METAR KAUN 150555Z AUTO 13009KT 10SM CLR 21/04 A2999 RMK A01
22:35
V
22 °C 10 mi - 140° 140° 11 kt METAR KAUN 150535Z AUTO 14011KT 10SM CLR 22/05 A2999 RMK A01
22:15
V
22 °C 10 mi - 140° 140° 9 - 15 kt METAR KAUN 150515Z AUTO 14009G15KT 10SM CLR 22/05 A2999 RMK A01
21:55
V
23 °C 10 mi - 130° 130° 6 kt METAR KAUN 150455Z AUTO 13006KT 10SM CLR 23/06 A2998 RMK A01
21:35
V
23 °C 10 mi - 150° 150° 7 kt METAR KAUN 150435Z AUTO 15007KT 10SM CLR 23/06 A2998 RMK A01
21:15
V
24 °C 10 mi - 160° 160° 8 kt METAR KAUN 150415Z AUTO 16008KT 10SM CLR 24/06 A2998 RMK A01
20:55
V
24 °C 10 mi - 170° 170° 6 - 13 kt METAR KAUN 150355Z AUTO 17006G13KT 10SM CLR 24/06 A2998 RMK A01
20:35
V
25 °C 10 mi - 170° 170° 7 kt METAR KAUN 150335Z AUTO 17007KT 140V200 10SM CLR 25/06 A2997 RMK A01
20:15
V
25 °C 10 mi - 150° 150° 10 kt METAR KAUN 150315Z AUTO 15010KT 10SM CLR 25/07 A2997 RMK A01
19:55
V
26 °C 10 mi - 170° 170° 8 - 14 kt METAR KAUN 150255Z AUTO 17008G14KT 10SM CLR 26/06 A2997 RMK A01
19:35
V
26 °C 10 mi - 190° 190° 9 kt METAR KAUN 150235Z AUTO 19009KT 10SM CLR 26/05 A2997 RMK A01
19:15
V
27 °C 10 mi - 190° 190° 8 kt METAR KAUN 150215Z AUTO 19008KT 10SM CLR 27/04 A2997 RMK A01
18:55
V
28 °C 10 mi - 200° 200° 8 kt METAR KAUN 150155Z AUTO 20008KT 10SM CLR 28/04 A2996 RMK A01
18:35
V
29 °C 9 mi - 190° 190° 8 kt METAR KAUN 150135Z AUTO 19008KT 9SM CLR 29/05 A2996 RMK A01
18:15
V
29 °C 10 mi - 160° 160° 8 kt METAR KAUN 150115Z AUTO 16008KT 10SM CLR 29/07 A2996 RMK A01
17:55
V
29 °C 10 mi - 200° 200° 10 kt METAR KAUN 150055Z AUTO 20010KT 10SM CLR 29/07 A2996 RMK A01
17:35
V
29 °C 9 mi - 190° 190° 9 kt METAR KAUN 150035Z AUTO 19009KT 9SM CLR 29/09 A2996 RMK A01
17:15
V
29 °C 9 mi - 200° 200° 6 - 14 kt METAR KAUN 150015Z AUTO 20006G14KT 9SM CLR 29/10 A2996 RMK A01
16:55
V
29 °C 9 mi - 200° 200° 9 kt METAR KAUN 142355Z AUTO 20009KT 170V240 9SM CLR 29/10 A2997 RMK A01
16:35
V
29 °C 9 mi - 190° 190° 8 kt METAR KAUN 142335Z AUTO 19008KT 160V230 9SM CLR 29/10 A2997 RMK A01
16:15
V
29 °C 8 mi - 200° 200° 5 - 11 kt METAR KAUN 142315Z AUTO 20005G11KT 8SM CLR 29/11 A2998 RMK A01
15:55
V
29 °C 8 mi - 240° 240° 10 kt METAR KAUN 142255Z AUTO 24010KT 8SM CLR 29/12 A2998 RMK A01
15:35
V
28 °C 8 mi - Var Var 6 - 12 kt METAR KAUN 142235Z AUTO VRB06G12KT 8SM CLR 28/12 A2999 RMK A01
15:15
V
28 °C 8 mi - 210° 210° 10 kt METAR KAUN 142215Z AUTO 21010KT 180V240 8SM CLR 28/12 A3000 RMK A01
14:55
V
29 °C 8 mi - 220° 220° 9 kt METAR KAUN 142155Z AUTO 22009KT 8SM CLR 29/11 A3000 RMK A01
14:35
V
29 °C 7 mi - 180° 180° 8 kt METAR KAUN 142135Z AUTO 18008KT 7SM CLR 29/12 A3000 RMK A01
14:15
V
28 °C 8 mi - 230° 230° 10 kt METAR KAUN 142115Z AUTO 23010KT 8SM CLR 28/11 A3000 RMK A01
13:55
V
29 °C 9 mi - 170° 170° 8 kt METAR KAUN 142055Z AUTO 17008KT 9SM CLR 29/10 A3000 RMK A01
13:35
V
28 °C 8 mi - 190° 190° 8 kt METAR KAUN 142035Z AUTO 19008KT 160V220 8SM CLR 28/09 A3001 RMK A01
13:15
V
28 °C 9 mi - 180° 180° 10 kt METAR KAUN 142015Z AUTO 18010KT 9SM CLR 28/09 A3001 RMK A01
12:55
V
28 °C 9 mi - 180° 180° 8 - 13 kt METAR KAUN 141955Z AUTO 18008G13KT 150V220 9SM CLR 28/09 A3001 RMK A01
12:35
V
27 °C 9 mi - 210° 210° 7 kt METAR KAUN 141935Z AUTO 21007KT 9SM CLR 27/09 A3002 RMK A01
12:15
V
27 °C 9 mi - 200° 200° 7 kt METAR KAUN 141915Z AUTO 20007KT 9SM CLR 27/09 A3002 RMK A01
11:55
V
26 °C 9 mi - 170° 170° 5 kt METAR KAUN 141855Z AUTO 17005KT 9SM CLR 26/10 A3002 RMK A01
11:35
V
25 °C 9 mi - 210° 210° 6 - 11 kt METAR KAUN 141835Z AUTO 21006G11KT 9SM CLR 25/10 A3002 RMK A01
11:15
V
25 °C 10 mi - 160° 160° 6 - 11 kt METAR KAUN 141815Z AUTO 16006G11KT 10SM CLR 25/09 A3002 RMK A01
10:55
V
25 °C 9 mi - 200° 200° 7 kt METAR KAUN 141755Z AUTO 20007KT 9SM CLR 25/08 A3001 RMK A01
10:35
V
24 °C 9 mi - 200° 200° 7 kt METAR KAUN 141735Z AUTO 20007KT 9SM CLR 24/10 A3001 RMK A01
10:15
V
25 °C 9 mi - 190° 190° 7 kt METAR KAUN 141715Z AUTO 19007KT 9SM CLR 25/11 A3001 RMK A01
09:55
V
24 °C 9 mi - 170° 170° 5 kt METAR KAUN 141655Z AUTO 17005KT 9SM CLR 24/11 A3001 RMK A01
09:35
V
23 °C 9 mi - Var Var 4 kt METAR KAUN 141635Z AUTO VRB04KT 9SM CLR 23/11 A3001 RMK A01
09:15
V
23 °C 9 mi - 210° 210° 6 kt METAR KAUN 141615Z AUTO 21006KT 9SM CLR 23/11 A3001 RMK A01
08:55
V
23 °C 10 mi - 360° 360° 0 kt METAR KAUN 141555Z AUTO 00000KT 10SM CLR 23/12 A3000 RMK A01
08:35
V
22 °C 10 mi - 130° 130° 5 kt METAR KAUN 141535Z AUTO 13005KT 10SM CLR 22/12 A3000 RMK A01
08:15
V
21 °C 10 mi - 140° 140° 5 kt METAR KAUN 141515Z AUTO 14005KT 10SM CLR 21/12 A3000 RMK A01
07:55
V
21 °C 10 mi - 130° 130° 8 kt METAR KAUN 141455Z AUTO 13008KT 10SM CLR 21/12 A2999 RMK A01
07:35
V
19 °C 10 mi - 090° 090° 7 kt METAR KAUN 141435Z AUTO 09007KT 10SM CLR 19/12 A2999 RMK A01
07:15
V
18 °C 10 mi - 110° 110° 7 kt METAR KAUN 141415Z AUTO 11007KT 10SM CLR 18/12 A2999 RMK A01
06:55
V
17 °C 9 mi - 120° 120° 5 kt METAR KAUN 141355Z AUTO 12005KT 9SM CLR 17/09 A2999 RMK A01
06:35
V
17 °C 9 mi - 120° 120° 6 kt METAR KAUN 141335Z AUTO 12006KT 9SM CLR 17/10 A2999 RMK A01
06:15
V
16 °C 10 mi - 130° 130° 4 kt METAR KAUN 141315Z AUTO 13004KT 10SM CLR 16/11 A2999 RMK A01
05:55
V
15 °C 10 mi - 150° 150° 5 kt METAR KAUN 141255Z AUTO 15005KT 10SM CLR 15/11 A2998 RMK A01
05:35
V
15 °C 10 mi - 180° 180° 5 kt METAR KAUN 141235Z AUTO 18005KT 10SM CLR 15/10 A2997 RMK A01
05:15
V
16 °C 10 mi - 120° 120° 8 kt METAR KAUN 141215Z AUTO 12008KT 10SM CLR 16/09 A2996 RMK A01
04:55
V
16 °C 10 mi - 120° 120° 6 kt METAR KAUN 141155Z AUTO 12006KT 10SM CLR 16/09 A2996 RMK A01
04:35
V
16 °C 10 mi - 140° 140° 4 kt METAR KAUN 141135Z AUTO 14004KT 10SM CLR 16/09 A2996 RMK A01
04:15
V
16 °C 10 mi - 120° 120° 7 kt METAR KAUN 141115Z AUTO 12007KT 10SM CLR 16/10 A2996 RMK A01
03:55
V
17 °C 10 mi - 120° 120° 7 kt METAR KAUN 141055Z AUTO 12007KT 10SM CLR 17/11 A2996 RMK A01
03:35
V
17 °C 10 mi - 140° 140° 6 kt METAR KAUN 141035Z AUTO 14006KT 10SM CLR 17/11 A2996 RMK A01
03:15
V
18 °C 10 mi - 150° 150° 6 kt METAR KAUN 141015Z AUTO 15006KT 10SM CLR 18/13 A2996 RMK A01
02:55
V
18 °C 10 mi - 160° 160° 4 kt METAR KAUN 140955Z AUTO 16004KT 10SM CLR 18/13 A2996 RMK A01
02:35
V
19 °C 10 mi - 190° 190° 3 kt METAR KAUN 140935Z AUTO 19003KT 10SM CLR 19/13 A2995 RMK A01
02:15
V
20 °C 10 mi - 110° 110° 4 kt METAR KAUN 140915Z AUTO 11004KT 10SM CLR 20/13 A2996 RMK A01
01:55
V
21 °C 10 mi - 110° 110° 7 kt METAR KAUN 140855Z AUTO 11007KT 10SM CLR 21/13 A2996 RMK A01
01:35
V
20 °C 10 mi - 110° 110° 7 kt METAR KAUN 140835Z AUTO 11007KT 10SM CLR 20/13 A2995 RMK A01
01:15
V
20 °C 10 mi - 100° 100° 6 kt METAR KAUN 140815Z AUTO 10006KT 10SM CLR 20/12 A2996 RMK A01
00:55
V
20 °C 10 mi - 120° 120° 5 kt METAR KAUN 140755Z AUTO 12005KT 10SM CLR 20/12 A2997 RMK A01
00:35
V
21 °C 10 mi - Var Var 6 kt METAR KAUN 140735Z AUTO VRB06KT 10SM CLR 21/12 A2997 RMK A01
00:15
V
20 °C 10 mi - 130° 130° 5 kt METAR KAUN 140715Z AUTO 13005KT 10SM CLR 20/11 A2998 RMK A01

13 juni 2024

Tijd Code Weer Temp. Zicht Plafond Wind METAR/SPECI
23:55
V
20 °C 10 mi - 120° 120° 7 kt METAR KAUN 140655Z AUTO 12007KT 10SM CLR 20/11 A2998 RMK A01
23:35
V
21 °C 10 mi - 120° 120° 5 kt METAR KAUN 140635Z AUTO 12005KT 10SM CLR 21/11 A2998 RMK A01
23:15
V
21 °C 10 mi - 120° 120° 9 kt METAR KAUN 140615Z AUTO 12009KT 10SM CLR 21/11 A2998 RMK A01
22:55
V
21 °C 10 mi - 120° 120° 6 kt METAR KAUN 140555Z AUTO 12006KT 10SM CLR 21/11 A2998 RMK A01
22:35
V
21 °C 10 mi - 150° 150° 4 kt METAR KAUN 140535Z AUTO 15004KT 10SM CLR 21/11 A2998 RMK A01
22:15
V
22 °C 10 mi - 140° 140° 5 kt METAR KAUN 140515Z AUTO 14005KT 10SM CLR 22/11 A2998 RMK A01
21:55
V
22 °C 10 mi - 160° 160° 5 kt METAR KAUN 140455Z AUTO 16005KT 10SM CLR 22/11 A2998 RMK A01
21:35
V
23 °C 10 mi - 140° 140° 5 kt METAR KAUN 140435Z AUTO 14005KT 10SM CLR 23/11 A2997 RMK A01
21:15
V
23 °C 10 mi - 150° 150° 4 kt METAR KAUN 140415Z AUTO 15004KT 10SM CLR 23/11 A2996 RMK A01
20:55
V
24 °C 10 mi - 140° 140° 5 kt METAR KAUN 140355Z AUTO 14005KT 10SM CLR 24/11 A2995 RMK A01
20:35
V
24 °C 10 mi - 140° 140° 6 kt METAR KAUN 140335Z AUTO 14006KT 10SM CLR 24/11 A2995 RMK A01
20:15
V
24 °C 10 mi - 150° 150° 6 kt METAR KAUN 140315Z AUTO 15006KT 10SM CLR 24/11 A2995 RMK A01
19:55
V
25 °C 9 mi - 160° 160° 7 kt METAR KAUN 140255Z AUTO 16007KT 9SM CLR 25/11 A2995 RMK A01
19:35
V
26 °C 10 mi - 190° 190° 6 kt METAR KAUN 140235Z AUTO 19006KT 10SM CLR 26/11 A2994 RMK A01
19:15
V
27 °C 9 mi - 190° 190° 7 kt METAR KAUN 140215Z AUTO 19007KT 9SM CLR 27/11 A2994 RMK A01
18:55
V
28 °C 9 mi - Var Var 5 kt METAR KAUN 140155Z AUTO VRB05KT 9SM CLR 28/11 A2993 RMK A01
18:35
V
28 °C 10 mi - 160° 160° 6 kt METAR KAUN 140135Z AUTO 16006KT 10SM CLR 28/11 A2993 RMK A01
18:15
V
28 °C 10 mi - Var Var 7 kt METAR KAUN 140115Z AUTO VRB07KT 150V220 10SM CLR 28/11 A2992 RMK A01
17:55
V
28 °C 10 mi - 200° 200° 7 kt METAR KAUN 140055Z AUTO 20007KT 10SM CLR 28/11 A2992 RMK A01
17:35
V
29 °C 9 mi - 210° 210° 6 kt METAR KAUN 140035Z AUTO 21006KT 9SM CLR 29/11 A2993 RMK A01
17:15
V
29 °C 9 mi - 200° 200° 8 kt METAR KAUN 140015Z AUTO 20008KT 9SM CLR 29/10 A2992 RMK A01
16:55
V
29 °C 9 mi - 200° 200° 6 kt METAR KAUN 132355Z AUTO 20006KT 9SM CLR 29/11 A2992 RMK A01
16:35
V
29 °C 9 mi - 200° 200° 8 kt METAR KAUN 132335Z AUTO 20008KT 9SM CLR 29/10 A2992 RMK A01
16:15
V
29 °C 8 mi - 220° 220° 7 - 12 kt METAR KAUN 132315Z AUTO 22007G12KT 8SM CLR 29/10 A2993 RMK A01
15:55
V
29 °C 10 mi - 180° 180° 8 kt METAR KAUN 132255Z AUTO 18008KT 10SM CLR 29/10 A2993 RMK A01
15:35
V
29 °C 9 mi - 230° 230° 9 kt METAR KAUN 132235Z AUTO 23009KT 190V250 9SM CLR 29/09 A2993 RMK A01
15:15
V
29 °C 10 mi - Var Var 6 - 11 kt METAR KAUN 132215Z AUTO VRB06G11KT 10SM CLR 29/10 A2993 RMK A01
14:55
V
29 °C 9 mi - 230° 230° 6 - 11 kt METAR KAUN 132155Z AUTO 23006G11KT 9SM CLR 29/10 A2993 RMK A01
14:35
V
29 °C 9 mi - Var Var 3 - 10 kt METAR KAUN 132135Z AUTO VRB03G10KT 9SM CLR 29/09 A2994 RMK A01
14:15
V
29 °C 9 mi - Var Var 6 kt METAR KAUN 132115Z AUTO VRB06KT 9SM CLR 29/09 A2994 RMK A01
13:55
V
29 °C 9 mi - 230° 230° 7 kt METAR KAUN 132055Z AUTO 23007KT 9SM CLR 29/09 A2994 RMK A01
13:35
V
28 °C 10 mi - 180° 180° 5 kt METAR KAUN 132035Z AUTO 18005KT 10SM CLR 28/09 A2994 RMK A01
13:15
V
28 °C 9 mi - Var Var 3 kt METAR KAUN 132015Z AUTO VRB03KT 9SM CLR 28/08 A2994 RMK A01
12:55
V
28 °C 10 mi - Var Var 5 kt METAR KAUN 131955Z AUTO VRB05KT 10SM CLR 28/08 A2995 RMK A01
12:35
V
27 °C 10 mi - 190° 190° 5 kt METAR KAUN 131935Z AUTO 19005KT 10SM CLR 27/08 A2995 RMK A01
12:15
V
26 °C 9 mi - 190° 190° 6 kt METAR KAUN 131915Z AUTO 19006KT 9SM CLR 26/09 A2995 RMK A01
11:55
V
25 °C 9 mi - Var Var 4 - 10 kt METAR KAUN 131855Z AUTO VRB04G10KT 9SM CLR 25/11 A2995 RMK A01
11:35
V
25 °C 10 mi - 240° 240° 7 kt METAR KAUN 131835Z AUTO 24007KT 200V270 10SM CLR 25/11 A2995 RMK A01
11:15
V
25 °C 9 mi - Var Var 5 kt METAR KAUN 131815Z AUTO VRB05KT 9SM CLR 25/11 A2994 RMK A01
10:55
V
24 °C 10 mi - Var Var 5 kt METAR KAUN 131755Z AUTO VRB05KT 10SM CLR 24/11 A2994 RMK A01
10:35
V
23 °C 10 mi - 200° 200° 5 kt METAR KAUN 131735Z AUTO 20005KT 10SM CLR 23/11 A2994 RMK A01
09:55
V
23 °C 10 mi - 200° 200° 6 kt METAR KAUN 131655Z AUTO 20006KT 10SM CLR 23/11 A2993 RMK A01
08:15
V
19 °C 9 mi - 360° 360° 0 kt METAR KAUN 131515Z AUTO 00000KT 9SM CLR 19/11 A2992 RMK A01
07:55
V
18 °C 9 mi - 220° 220° 4 kt METAR KAUN 131455Z AUTO 22004KT 9SM CLR 18/11 A2992 RMK A01
07:35
V
18 °C 9 mi - 170° 170° 5 kt METAR KAUN 131435Z AUTO 17005KT 9SM CLR 18/11 A2991 RMK A01
07:15
V
17 °C 10 mi - 170° 170° 5 kt METAR KAUN 131415Z AUTO 17005KT 10SM CLR 17/11 A2990 RMK A01
06:55
V
18 °C 10 mi - 180° 180° 4 kt METAR KAUN 131355Z AUTO 18004KT 10SM CLR 18/11 A2990 RMK A01
06:35
V
18 °C 10 mi - 360° 360° 0 kt METAR KAUN 131335Z AUTO 00000KT 10SM CLR 18/11 A2989 RMK A01
06:15
V
17 °C 10 mi - 360° 360° 0 kt METAR KAUN 131315Z AUTO 00000KT 10SM CLR 17/10 A2988 RMK A01
05:55
V
18 °C 10 mi - 110° 110° 6 kt METAR KAUN 131255Z AUTO 11006KT 10SM CLR 18/10 A2988 RMK A01
05:35
V
17 °C 10 mi - 110° 110° 4 kt METAR KAUN 131235Z AUTO 11004KT 10SM CLR 17/10 A2987 RMK A01
05:15
V
16 °C 10 mi - 110° 110° 3 kt METAR KAUN 131215Z AUTO 11003KT 10SM CLR 16/09 A2987 RMK A01
04:55
V
17 °C 10 mi - 090° 090° 5 kt METAR KAUN 131155Z AUTO 09005KT 10SM CLR 17/09 A2986 RMK A01
04:35
V
16 °C 10 mi - 110° 110° 4 kt METAR KAUN 131135Z AUTO 11004KT 10SM CLR 16/09 A2986 RMK A01
04:15
V
17 °C 10 mi - 100° 100° 6 kt METAR KAUN 131115Z AUTO 10006KT 10SM CLR 17/09 A2986 RMK A01
03:55
V
17 °C 10 mi - 090° 090° 4 kt METAR KAUN 131055Z AUTO 09004KT 10SM CLR 17/09 A2986 RMK A01
03:35
V
16 °C 10 mi - 110° 110° 6 kt METAR KAUN 131035Z AUTO 11006KT 10SM CLR 16/09 A2986 RMK A01
03:15
V
17 °C 10 mi - 120° 120° 7 kt METAR KAUN 131015Z AUTO 12007KT 10SM CLR 17/09 A2987 RMK A01
02:55
V
17 °C 10 mi - 140° 140° 7 - 15 kt METAR KAUN 130955Z AUTO 14007G15KT 10SM CLR 17/09 A2987 RMK A01
02:35
V
18 °C 10 mi - 140° 140° 9 kt METAR KAUN 130935Z AUTO 14009KT 10SM CLR 18/09 A2987 RMK A01
02:15
V
18 °C 10 mi - 140° 140° 10 kt METAR KAUN 130915Z AUTO 14010KT 10SM CLR 18/09 A2987 RMK A01
01:55
V
19 °C 10 mi - 140° 140° 10 kt METAR KAUN 130855Z AUTO 14010KT 10SM CLR 19/09 A2987 RMK A01
01:35
V
19 °C 10 mi - 130° 130° 8 kt METAR KAUN 130835Z AUTO 13008KT 10SM CLR 19/09 A2987 RMK A01
01:15
V
20 °C 10 mi - 130° 130° 8 - 16 kt METAR KAUN 130815Z AUTO 13008G16KT 10SM CLR 20/10 A2987 RMK A01
00:55
V
20 °C 10 mi - 130° 130° 8 kt METAR KAUN 130755Z AUTO 13008KT 110V170 10SM CLR 20/11 A2987 RMK A01
00:35
V
21 °C 10 mi - 130° 130° 6 kt METAR KAUN 130735Z AUTO 13006KT 10SM CLR 21/12 A2986 RMK A01
00:15
V
21 °C 10 mi - 140° 140° 7 kt METAR KAUN 130715Z AUTO 14007KT 10SM CLR 21/12 A2986 RMK A01

12 juni 2024

Tijd Code Weer Temp. Zicht Plafond Wind METAR/SPECI
23:55
V
22 °C 10 mi - 120° 120° 5 kt METAR KAUN 130655Z AUTO 12005KT 10SM CLR 22/12 A2986 RMK A01
23:35
V
22 °C 9 mi - 130° 130° 8 kt METAR KAUN 130635Z AUTO 13008KT 9SM CLR 22/12 A2986 RMK A01
23:15
V
23 °C 10 mi - 130° 130° 6 kt METAR KAUN 130615Z AUTO 13006KT 10SM CLR 23/12 A2986 RMK A01
22:55
V
23 °C 10 mi - 140° 140° 7 kt METAR KAUN 130555Z AUTO 14007KT 10SM CLR 23/13 A2986 RMK A01
Wijziging doorgeven